Wetterdaten: Woche 22.09.14 - 28.09.14 (KW39)
Datum Zeit Temp. A. Feuchte A. Luftdruck Regen Wind Richtung Sonnenschein ET UV Solar Taupunkt Windchill Windben Empfang
22.09.2014 00:00 14,1 C 86 % 1009,6 hPa 0,3 l/m 3,4 km/h (1 Bft) W-SW 0,00 h 0,000 mm 0,0 UV-I 0 W/m 11,7 C 14,0 C 6,9 km/h (2 Bft) 0,00 %
22.09.2014 01:00 13,8 C 86 % 1010,0 hPa 0,0 l/m 1,3 km/h (1 Bft) W-SW 0,00 h 0,000 mm 0,0 UV-I 0 W/m 11,4 C 13,8 C 4,0 km/h (1 Bft) 0,00 %
22.09.2014 02:00 13,5 C 86 % 1010,9 hPa 0,3 l/m 0,9 km/h (0 Bft) S-SW 0,00 h 0,000 mm 0,0 UV-I 0 W/m 11,2 C 13,5 C 3,0 km/h (1 Bft) 0,00 %
22.09.2014 03:00 12,9 C 88 % 1011,6 hPa 5,7 l/m 3,8 km/h (1 Bft) W-SW 0,00 h 0,000 mm 0,0 UV-I 0 W/m 11,0 C 12,9 C 7,9 km/h (2 Bft) 0,00 %
22.09.2014 04:00 12,1 C 88 % 1012,5 hPa 0,0 l/m 1,0 km/h (0 Bft) W-SW 0,00 h 0,000 mm 0,0 UV-I 0 W/m 10,1 C 12,1 C 3,0 km/h (1 Bft) 0,00 %
22.09.2014 05:00 11,8 C 87 % 1012,9 hPa 0,0 l/m 1,7 km/h (1 Bft) W 0,00 h 0,000 mm 0,0 UV-I 0 W/m 9,6 C 11,8 C 4,0 km/h (1 Bft) 0,00 %
22.09.2014 06:00 11,1 C 87 % 1013,1 hPa 0,0 l/m 2,4 km/h (1 Bft) SW 0,00 h 0,000 mm 0,0 UV-I 0 W/m 9,0 C 10,9 C 6,0 km/h (2 Bft) 0,00 %
22.09.2014 07:00 10,9 C 85 % 1013,5 hPa 0,0 l/m 1,0 km/h (0 Bft) S 0,00 h 0,000 mm 1,0 UV-I 39 W/m 8,6 C 10,9 C 3,0 km/h (1 Bft) 0,00 %
22.09.2014 08:00 12,3 C 79 % 1013,4 hPa 0,0 l/m 3,3 km/h (1 Bft) SW 0,75 h 0,000 mm 2,0 UV-I 146 W/m 8,8 C 12,2 C 6,9 km/h (2 Bft) 0,00 %
22.09.2014 09:00 13,1 C 74 % 1013,4 hPa 0,0 l/m 2,3 km/h (1 Bft) W-SW 0,75 h 0,000 mm 2,7 UV-I 232 W/m 8,5 C 13,1 C 6,0 km/h (2 Bft) 0,00 %
22.09.2014 10:00 13,9 C 68 % 1013,6 hPa 0,0 l/m 1,5 km/h (1 Bft) W-SW 0,25 h 0,000 mm 2,0 UV-I 256 W/m 8,0 C 13,9 C 3,0 km/h (1 Bft) 0,00 %
22.09.2014 11:00 13,8 C 67 % 1013,5 hPa 0,0 l/m 3,0 km/h (1 Bft) W-SW 0,25 h 0,000 mm 3,7 UV-I 222 W/m 7,6 C 13,7 C 5,9 km/h (2 Bft) 0,00 %
22.09.2014 12:00 14,1 C 64 % 1012,6 hPa 0,0 l/m 4,8 km/h (1 Bft) W-SW 0,50 h 0,000 mm 3,0 UV-I 364 W/m 7,4 C 13,9 C 8,9 km/h (2 Bft) 0,00 %
22.09.2014 13:00 14,9 C 60 % 1012,1 hPa 0,0 l/m 4,3 km/h (1 Bft) W-SW 0,50 h 0,000 mm 2,0 UV-I 251 W/m 7,2 C 14,4 C 7,9 km/h (2 Bft) 0,00 %
22.09.2014 14:00 12,7 C 72 % 1011,8 hPa 0,6 l/m 4,2 km/h (1 Bft) W-SW 0,00 h 0,000 mm 2,3 UV-I 201 W/m 7,7 C 12,5 C 7,9 km/h (2 Bft) 0,00 %
22.09.2014 15:00 14,1 C 62 % 1010,6 hPa 0,0 l/m 2,2 km/h (1 Bft) SW 0,00 h 0,000 mm 1,0 UV-I 205 W/m 7,0 C 14,1 C 4,0 km/h (1 Bft) 0,00 %
22.09.2014 16:00 13,7 C 61 % 1011,2 hPa 0,0 l/m 4,0 km/h (1 Bft) O-SO 0,00 h 0,000 mm 1,0 UV-I 68 W/m 6,3 C 13,3 C 7,9 km/h (2 Bft) 0,00 %
22.09.2014 17:00 11,8 C 68 % 1011,9 hPa 0,0 l/m 1,2 km/h (1 Bft) W-NW 0,25 h 0,000 mm 0,0 UV-I 140 W/m 6,2 C 11,8 C 3,0 km/h (1 Bft) 0,00 %
22.09.2014 18:00 12,1 C 63 % 1012,1 hPa 0,0 l/m 1,8 km/h (1 Bft) W-SW 0,25 h 0,000 mm 0,0 UV-I 26 W/m 5,2 C 12,1 C 5,0 km/h (1 Bft) 0,00 %
22.09.2014 19:00 10,0 C 70 % 1013,6 hPa 0,0 l/m 3,1 km/h (1 Bft) NO 0,00 h 0,000 mm 0,0 UV-I 0 W/m 4,8 C 9,5 C 6,9 km/h (2 Bft) 0,00 %
22.09.2014 20:00 7,8 C 83 % 1014,7 hPa 0,9 l/m 0,4 km/h (0 Bft) W-SW 0,00 h 0,000 mm 0,0 UV-I 0 W/m 5,1 C 7,8 C 2,0 km/h (1 Bft) 0,00 %
22.09.2014 21:00 7,8 C 86 % 1015,2 hPa 1,2 l/m 1,1 km/h (0 Bft) S-SW 0,00 h 0,000 mm 0,0 UV-I 0 W/m 5,6 C 7,8 C 3,0 km/h (1 Bft) 0,00 %
22.09.2014 22:00 7,8 C 86 % 1015,6 hPa 0,0 l/m 1,7 km/h (1 Bft) W-SW 0,00 h 0,000 mm 0,0 UV-I 0 W/m 5,6 C 7,8 C 5,0 km/h (1 Bft) 0,00 %
22.09.2014 23:00 7,8 C 83 % 1016,3 hPa 0,0 l/m 2,3 km/h (1 Bft) W-SW 0,00 h 0,000 mm 0,0 UV-I 0 W/m 5,1 C 7,8 C 4,0 km/h (1 Bft) 0,00 %
23.09.2014 00:00 7,6 C 83 % 1016,6 hPa 0,0 l/m 3,1 km/h (1 Bft) W 0,00 h 0,000 mm 0,0 UV-I 0 W/m 4,9 C 7,2 C 6,9 km/h (2 Bft) 0,00 %
23.09.2014 01:00 7,8 C 82 % 1016,4 hPa 0,0 l/m 7,8 km/h (2 Bft) S 0,00 h 0,000 mm 0,0 UV-I 0 W/m 4,9 C 5,9 C 12,0 km/h (2 Bft) 0,00 %
23.09.2014 02:00 7,8 C 83 % 1016,5 hPa 0,0 l/m 1,4 km/h (1 Bft) W-NW 0,00 h 0,000 mm 0,0 UV-I 0 W/m 5,0 C 7,8 C 5,0 km/h (1 Bft) 0,00 %
23.09.2014 03:00 7,4 C 85 % 1016,1 hPa 0,0 l/m 2,0 km/h (1 Bft) W-SW 0,00 h 0,000 mm 0,0 UV-I 0 W/m 5,0 C 7,4 C 5,9 km/h (2 Bft) 0,00 %
23.09.2014 04:00 7,4 C 84 % 1016,1 hPa 0,0 l/m 1,5 km/h (1 Bft) W-SW 0,00 h 0,000 mm 0,0 UV-I 0 W/m 4,9 C 7,4 C 5,0 km/h (1 Bft) 0,00 %
23.09.2014 05:00 7,7 C 84 % 1016,3 hPa 0,0 l/m 2,2 km/h (1 Bft) W-SW 0,00 h 0,000 mm 0,0 UV-I 0 W/m 5,1 C 7,7 C 5,9 km/h (2 Bft) 0,00 %
23.09.2014 06:00 8,1 C 82 % 1016,6 hPa 0,0 l/m 4,8 km/h (1 Bft) W-SW 0,00 h 0,000 mm 0,0 UV-I 0 W/m 5,2 C 7,3 C 7,9 km/h (2 Bft) 0,00 %
23.09.2014 07:00 8,1 C 82 % 1017,6 hPa 0,0 l/m 2,2 km/h (1 Bft) SW 0,00 h 0,000 mm 0,0 UV-I 2 W/m 5,3 C 8,1 C 3,0 km/h (1 Bft) 0,00 %
23.09.2014 08:00 8,1 C 84 % 1018,3 hPa 0,0 l/m 1,5 km/h (1 Bft) W-SW 0,00 h 0,000 mm 1,0 UV-I 15 W/m 5,4 C 8,1 C 4,0 km/h (1 Bft) 0,00 %
23.09.2014 09:00 8,6 C 82 % 1018,8 hPa 0,0 l/m 1,7 km/h (1 Bft) W-SW 0,00 h 0,000 mm 1,7 UV-I 57 W/m 5,7 C 8,6 C 4,0 km/h (1 Bft) 0,00 %
23.09.2014 10:00 9,7 C 78 % 1019,4 hPa 0,0 l/m 3,1 km/h (1 Bft) W 0,00 h 0,000 mm 1,7 UV-I 141 W/m 6,0 C 9,4 C 4,9 km/h (1 Bft) 0,00 %
23.09.2014 11:00 10,4 C 74 % 1019,4 hPa 0,0 l/m 0,8 km/h (0 Bft) W-SW 0,00 h 0,000 mm 2,3 UV-I 161 W/m 6,0 C 10,4 C 2,0 km/h (1 Bft) 0,00 %
23.09.2014 12:00 11,4 C 70 % 1019,3 hPa 0,0 l/m 3,4 km/h (1 Bft) O-SO 0,00 h 0,000 mm 3,0 UV-I 207 W/m 6,2 C 11,4 C 5,9 km/h (2 Bft) 0,00 %
23.09.2014 13:00 12,2 C 68 % 1019,2 hPa 0,0 l/m 2,1 km/h (1 Bft) W-SW 0,00 h 0,000 mm 2,0 UV-I 206 W/m 6,4 C 12,2 C 4,0 km/h (1 Bft) 0,00 %
23.09.2014 14:00 12,9 C 64 % 1018,6 hPa 0,0 l/m 0,8 km/h (0 Bft) O 0,00 h 0,000 mm 2,3 UV-I 236 W/m 6,2 C 12,9 C 2,0 km/h (1 Bft) 0,00 %
23.09.2014 15:00 14,1 C 59 % 1017,5 hPa 0,0 l/m 2,3 km/h (1 Bft) W 0,00 h 0,000 mm 2,0 UV-I 211 W/m 6,1 C 14,0 C 3,0 km/h (1 Bft) 0,00 %
23.09.2014 16:00 14,1 C 57 % 1017,0 hPa 0,0 l/m 0,4 km/h (0 Bft) W-NW 0,00 h 0,000 mm 1,0 UV-I 196 W/m 5,7 C 14,1 C 2,0 km/h (1 Bft) 0,00 %
23.09.2014 17:00 15,5 C 49 % 1016,1 hPa 0,0 l/m 0,2 km/h (0 Bft) N 1,00 h 0,000 mm 1,0 UV-I 468 W/m 4,9 C 15,5 C 2,0 km/h (1 Bft) 0,00 %
23.09.2014 18:00 13,7 C 56 % 1016,2 hPa 0,0 l/m 0,0 km/h (0 Bft) N 1,00 h 0,000 mm 0,0 UV-I 161 W/m 5,0 C 13,7 C 0,0 km/h (0 Bft) 0,00 %
23.09.2014 19:00 9,5 C 75 % 1017,1 hPa 0,0 l/m 0,0 km/h (0 Bft) N 0,00 h 0,000 mm 0,0 UV-I 0 W/m 5,2 C 9,5 C 0,0 km/h (0 Bft) 0,00 %
23.09.2014 20:00 7,1 C 84 % 1018,1 hPa 0,0 l/m 0,0 km/h (0 Bft) N 0,00 h 0,000 mm 0,0 UV-I 0 W/m 4,5 C 7,1 C 0,0 km/h (0 Bft) 0,00 %
23.09.2014 21:00 6,1 C 88 % 1018,3 hPa 0,0 l/m 0,0 km/h (0 Bft) N 0,00 h 0,000 mm 0,0 UV-I 0 W/m 4,2 C 6,1 C 0,0 km/h (0 Bft) 0,00 %
23.09.2014 22:00 5,5 C 90 % 1018,4 hPa 0,0 l/m 0,0 km/h (0 Bft) N 0,00 h 0,000 mm 0,0 UV-I 0 W/m 4,0 C 5,5 C 0,0 km/h (0 Bft) 0,00 %
23.09.2014 23:00 5,4 C 91 % 1018,3 hPa 0,0 l/m 0,0 km/h (0 Bft) N 0,00 h 0,000 mm 0,0 UV-I 0 W/m 4,0 C 5,4 C 0,0 km/h (0 Bft) 0,00 %
24.09.2014 00:00 4,9 C 91 % 1018,4 hPa 0,0 l/m 0,0 km/h (0 Bft) N 0,00 h 0,000 mm 0,0 UV-I 0 W/m 3,5 C 4,9 C 0,0 km/h (0 Bft) 0,00 %
24.09.2014 01:00 4,8 C 91 % 1018,2 hPa 0,0 l/m 0,0 km/h (0 Bft) N 0,00 h 0,000 mm 0,0 UV-I 0 W/m 3,4 C 4,8 C 0,0 km/h (0 Bft) 0,00 %
24.09.2014 02:00 4,6 C 92 % 1018,0 hPa 0,0 l/m 0,0 km/h (0 Bft) N 0,00 h 0,000 mm 0,0 UV-I 0 W/m 3,3 C 4,6 C 0,0 km/h (0 Bft) 0,00 %
24.09.2014 03:00 3,9 C 93 % 1017,5 hPa 0,0 l/m 0,0 km/h (0 Bft) N 0,00 h 0,000 mm 0,0 UV-I 0 W/m 2,9 C 3,9 C 0,0 km/h (0 Bft) 0,00 %
24.09.2014 04:00 4,1 C 93 % 1017,0 hPa 0,0 l/m 0,0 km/h (0 Bft) N 0,00 h 0,000 mm 0,0 UV-I 0 W/m 3,0 C 4,1 C 0,0 km/h (0 Bft) 0,00 %
24.09.2014 05:00 4,1 C 93 % 1016,7 hPa 0,0 l/m 0,0 km/h (0 Bft) N 0,00 h 0,000 mm 0,0 UV-I 0 W/m 3,1 C 4,1 C 0,0 km/h (0 Bft) 0,00 %
24.09.2014 06:00 3,5 C 94 % 1016,4 hPa 0,0 l/m 0,0 km/h (0 Bft) N 0,00 h 0,000 mm 1,0 UV-I 0 W/m 2,6 C 3,5 C 0,0 km/h (0 Bft) 0,00 %
24.09.2014 07:00 3,2 C 94 % 1016,0 hPa 0,0 l/m 0,0 km/h (0 Bft) N 0,00 h 0,000 mm 1,0 UV-I 39 W/m 2,3 C 3,2 C 0,0 km/h (0 Bft) 0,00 %
24.09.2014 08:00 4,1 C 93 % 1015,5 hPa 0,0 l/m 0,0 km/h (0 Bft) N 0,00 h 0,000 mm 2,0 UV-I 105 W/m 2,9 C 4,1 C 0,0 km/h (0 Bft) 0,00 %
24.09.2014 09:00 5,8 C 91 % 1015,1 hPa 0,0 l/m 0,0 km/h (0 Bft) N 0,00 h 0,000 mm 2,0 UV-I 158 W/m 4,4 C 5,8 C 0,0 km/h (0 Bft) 0,00 %
24.09.2014 10:00 8,0 C 81 % 1014,4 hPa 0,0 l/m 0,5 km/h (0 Bft) O-NO 0,00 h 0,000 mm 4,0 UV-I 175 W/m 4,8 C 8,0 C 2,0 km/h (1 Bft) 0,00 %
24.09.2014 11:00 11,8 C 66 % 1013,4 hPa 0,0 l/m 1,5 km/h (1 Bft) O-SO 0,50 h 0,000 mm 5,0 UV-I 349 W/m 5,7 C 11,8 C 2,0 km/h (1 Bft) 0,00 %
24.09.2014 12:00 12,9 C 62 % 1012,5 hPa 0,0 l/m 2,0 km/h (1 Bft) O 1,00 h 0,000 mm 4,7 UV-I 500 W/m 5,8 C 12,7 C 3,0 km/h (1 Bft) 0,00 %
24.09.2014 13:00 13,4 C 63 % 1011,5 hPa 0,0 l/m 1,4 km/h (1 Bft) O-NO 1,00 h 0,000 mm 2,0 UV-I 559 W/m 6,5 C 13,4 C 3,0 km/h (1 Bft) 0,00 %
24.09.2014 14:00 14,6 C 59 % 1010,4 hPa 0,0 l/m 3,3 km/h (1 Bft) O 1,00 h 0,000 mm 2,0 UV-I 554 W/m 6,6 C 14,5 C 4,9 km/h (1 Bft) 0,00 %
24.09.2014 15:00 15,5 C 57 % 1009,5 hPa 0,0 l/m 1,2 km/h (1 Bft) O-SO 1,00 h 0,000 mm 2,0 UV-I 525 W/m 6,9 C 15,5 C 2,0 km/h (1 Bft) 0,00 %
24.09.2014 16:00 16,1 C 56 % 1008,3 hPa 0,0 l/m 1,7 km/h (1 Bft) O 1,00 h 0,000 mm 1,0 UV-I 494 W/m 7,3 C 16,1 C 3,0 km/h (1 Bft) 0,00 %
24.09.2014 17:00 16,0 C 59 % 1008,3 hPa 0,0 l/m 0,6 km/h (0 Bft) N 1,00 h 0,000 mm 1,0 UV-I 176 W/m 8,1 C 16,0 C 1,0 km/h (0 Bft) 0,00 %
24.09.2014 18:00 14,6 C 67 % 1008,7 hPa 0,0 l/m 0,0 km/h (0 Bft) N 0,50 h 0,000 mm 0,0 UV-I 36 W/m 8,5 C 14,6 C 0,0 km/h (0 Bft) 0,00 %
24.09.2014 19:00 12,0 C 77 % 1009,3 hPa 0,0 l/m 0,0 km/h (0 Bft) N 0,00 h 0,000 mm 0,0 UV-I 0 W/m 8,1 C 12,0 C 0,0 km/h (0 Bft) 0,00 %
24.09.2014 20:00 10,2 C 84 % 1009,9 hPa 0,0 l/m 0,0 km/h (0 Bft) N 0,00 h 0,000 mm 0,0 UV-I 0 W/m 7,6 C 10,2 C 0,0 km/h (0 Bft) 0,00 %
24.09.2014 21:00 9,6 C 87 % 1010,0 hPa 0,0 l/m 0,0 km/h (0 Bft) N 0,00 h 0,000 mm 0,0 UV-I 0 W/m 7,6 C 9,6 C 0,0 km/h (0 Bft) 0,00 %
24.09.2014 22:00 9,6 C 88 % 1010,4 hPa 0,0 l/m 0,0 km/h (0 Bft) N 0,00 h 0,000 mm 0,0 UV-I 0 W/m 7,7 C 9,6 C 0,0 km/h (0 Bft) 0,00 %
24.09.2014 23:00 9,9 C 89 % 1010,6 hPa 0,0 l/m 0,0 km/h (0 Bft) N 0,00 h 0,000 mm 0,0 UV-I 0 W/m 8,2 C 9,9 C 0,0 km/h (0 Bft) 0,00 %
25.09.2014 00:00 10,1 C 89 % 1010,7 hPa 0,0 l/m 0,0 km/h (0 Bft) N 0,00 h 0,000 mm 0,0 UV-I 0 W/m 8,2 C 10,1 C 0,0 km/h (0 Bft) 0,00 %
25.09.2014 01:00 10,3 C 88 % 1010,9 hPa 0,0 l/m 0,0 km/h (0 Bft) N 0,00 h 0,000 mm 0,0 UV-I 0 W/m 8,4 C 10,3 C 0,0 km/h (0 Bft) 0,00 %
25.09.2014 02:00 11,0 C 87 % 1012,0 hPa 1,2 l/m 1,0 km/h (0 Bft) W-SW 0,00 h 0,000 mm 0,0 UV-I 0 W/m 8,9 C 11,0 C 4,0 km/h (1 Bft) 0,00 %
25.09.2014 03:00 10,8 C 87 % 1012,8 hPa 0,9 l/m 0,4 km/h (0 Bft) N-NW 0,00 h 0,000 mm 0,0 UV-I 0 W/m 8,7 C 10,8 C 2,0 km/h (1 Bft) 0,00 %
25.09.2014 04:00 10,6 C 88 % 1013,5 hPa 1,5 l/m 0,0 km/h (0 Bft) N 0,00 h 0,000 mm 0,0 UV-I 0 W/m 8,6 C 10,6 C 0,0 km/h (0 Bft) 0,00 %
25.09.2014 05:00 10,4 C 88 % 1014,3 hPa 0,6 l/m 0,2 km/h (0 Bft) N 0,00 h 0,000 mm 0,0 UV-I 0 W/m 8,5 C 10,4 C 2,0 km/h (1 Bft) 0,00 %
25.09.2014 06:00 10,2 C 88 % 1014,8 hPa 0,0 l/m 0,4 km/h (0 Bft) W-SW 0,00 h 0,000 mm 0,0 UV-I 0 W/m 8,3 C 10,2 C 1,0 km/h (0 Bft) 0,00 %
25.09.2014 07:00 10,1 C 86 % 1015,5 hPa 0,0 l/m 1,2 km/h (1 Bft) W-SW 0,00 h 0,000 mm 1,0 UV-I 18 W/m 7,9 C 10,1 C 3,0 km/h (1 Bft) 0,00 %
25.09.2014 08:00 10,3 C 84 % 1015,9 hPa 0,0 l/m 0,0 km/h (0 Bft) N 0,00 h 0,000 mm 1,0 UV-I 41 W/m 7,6 C 10,3 C 0,0 km/h (0 Bft) 0,00 %
25.09.2014 09:00 10,4 C 81 % 1016,2 hPa 0,0 l/m 0,0 km/h (0 Bft) N 0,00 h 0,000 mm 1,3 UV-I 62 W/m 7,3 C 10,4 C 0,0 km/h (0 Bft) 0,00 %
25.09.2014 10:00 10,8 C 82 % 1016,4 hPa 0,3 l/m 1,9 km/h (1 Bft) SW 0,00 h 0,000 mm 1,0 UV-I 110 W/m 7,8 C 10,8 C 5,0 km/h (1 Bft) 0,00 %
25.09.2014 11:00 10,8 C 82 % 1016,9 hPa 0,0 l/m 0,9 km/h (0 Bft) N-NO 0,00 h 0,000 mm 2,0 UV-I 101 W/m 7,9 C 10,8 C 3,0 km/h (1 Bft) 0,00 %
25.09.2014 12:00 12,1 C 79 % 1017,1 hPa 0,3 l/m 3,2 km/h (1 Bft) O 0,00 h 0,000 mm 3,0 UV-I 167 W/m 8,6 C 11,4 C 5,0 km/h (1 Bft) 0,00 %
25.09.2014 13:00 13,0 C 75 % 1016,8 hPa 0,0 l/m 1,2 km/h (1 Bft) N 0,50 h 0,000 mm 1,3 UV-I 429 W/m 8,6 C 13,0 C 4,0 km/h (1 Bft) 0,00 %
25.09.2014 14:00 13,0 C 74 % 1017,0 hPa 0,0 l/m 4,2 km/h (1 Bft) SW 0,00 h 0,000 mm 2,3 UV-I 175 W/m 8,4 C 12,6 C 7,9 km/h (2 Bft) 0,00 %
25.09.2014 15:00 13,4 C 73 % 1016,8 hPa 0,0 l/m 0,1 km/h (0 Bft) N 0,00 h 0,000 mm 1,7 UV-I 218 W/m 8,6 C 13,4 C 1,0 km/h (0 Bft) 0,00 %
25.09.2014 16:00 12,7 C 74 % 1017,3 hPa 0,0 l/m 2,9 km/h (1 Bft) O-NO 0,25 h 0,000 mm 1,0 UV-I 159 W/m 8,1 C 12,7 C 7,9 km/h (2 Bft) 0,00 %
25.09.2014 17:00 11,3 C 81 % 1018,2 hPa 2,4 l/m 1,6 km/h (1 Bft) S 0,00 h 0,000 mm 0,0 UV-I 72 W/m 8,1 C 11,3 C 4,0 km/h (1 Bft) 0,00 %
25.09.2014 18:00 11,2 C 82 % 1019,1 hPa 0,0 l/m 0,4 km/h (0 Bft) W 0,00 h 0,000 mm 0,0 UV-I 23 W/m 8,2 C 11,2 C 1,0 km/h (0 Bft) 0,00 %
25.09.2014 19:00 11,0 C 82 % 1019,5 hPa 0,0 l/m 0,6 km/h (0 Bft) N 0,00 h 0,000 mm 0,0 UV-I 0 W/m 8,1 C 11,0 C 4,0 km/h (1 Bft) 0,00 %
25.09.2014 20:00 11,1 C 82 % 1020,1 hPa 0,0 l/m 0,1 km/h (0 Bft) N 0,00 h 0,000 mm 0,0 UV-I 0 W/m 8,1 C 11,1 C 1,0 km/h (0 Bft) 0,00 %
25.09.2014 21:00 11,0 C 82 % 1021,1 hPa 0,0 l/m 0,6 km/h (0 Bft) W-NW 0,00 h 0,000 mm 0,0 UV-I 0 W/m 8,0 C 11,0 C 3,0 km/h (1 Bft) 0,00 %
25.09.2014 22:00 11,0 C 80 % 1021,3 hPa 0,0 l/m 1,5 km/h (1 Bft) W-NW 0,00 h 0,000 mm 0,0 UV-I 0 W/m 7,7 C 11,0 C 5,0 km/h (1 Bft) 0,00 %
25.09.2014 23:00 10,7 C 81 % 1021,6 hPa 0,0 l/m 0,2 km/h (0 Bft) N 0,00 h 0,000 mm 0,0 UV-I 0 W/m 7,6 C 10,7 C 2,0 km/h (1 Bft) 0,00 %
26.09.2014 00:00 10,3 C 83 % 1021,8 hPa 0,0 l/m 0,3 km/h (0 Bft) NW 0,00 h 0,000 mm 0,0 UV-I 0 W/m 7,5 C 10,3 C 1,0 km/h (0 Bft) 0,00 %
26.09.2014 01:00 9,9 C 83 % 1021,8 hPa 0,0 l/m 0,5 km/h (0 Bft) N 0,00 h 0,000 mm 0,0 UV-I 0 W/m 7,2 C 9,9 C 4,0 km/h (1 Bft) 0,00 %
26.09.2014 02:00 10,1 C 83 % 1021,7 hPa 0,0 l/m 0,2 km/h (0 Bft) W-SW 0,00 h 0,000 mm 0,0 UV-I 0 W/m 7,3 C 10,1 C 1,0 km/h (0 Bft) 0,00 %
26.09.2014 03:00 10,4 C 82 % 1021,8 hPa 0,0 l/m 1,4 km/h (1 Bft) N 0,00 h 0,000 mm 0,0 UV-I 0 W/m 7,4 C 10,4 C 2,0 km/h (1 Bft) 0,00 %
26.09.2014 04:00 10,4 C 82 % 1022,0 hPa 0,0 l/m 0,6 km/h (0 Bft) S 0,00 h 0,000 mm 0,0 UV-I 0 W/m 7,4 C 10,4 C 3,0 km/h (1 Bft) 0,00 %
26.09.2014 05:00 10,5 C 81 % 1021,8 hPa 0,0 l/m 0,6 km/h (0 Bft) O 0,00 h 0,000 mm 0,0 UV-I 0 W/m 7,3 C 10,5 C 2,0 km/h (1 Bft) 0,00 %
26.09.2014 06:00 10,5 C 80 % 1021,9 hPa 0,0 l/m 1,2 km/h (1 Bft) S 0,00 h 0,000 mm 0,0 UV-I 0 W/m 7,2 C 10,5 C 4,0 km/h (1 Bft) 0,00 %
26.09.2014 07:00 10,5 C 80 % 1022,2 hPa 0,0 l/m 0,3 km/h (0 Bft) N 0,00 h 0,000 mm 1,0 UV-I 15 W/m 7,3 C 10,5 C 1,0 km/h (0 Bft) 0,00 %
26.09.2014 08:00 11,0 C 80 % 1022,5 hPa 0,0 l/m 1,3 km/h (1 Bft) SW 0,00 h 0,000 mm 1,3 UV-I 40 W/m 7,6 C 11,0 C 3,0 km/h (1 Bft) 0,00 %
26.09.2014 09:00 11,6 C 78 % 1022,5 hPa 0,0 l/m 1,4 km/h (1 Bft) N 0,00 h 0,000 mm 1,7 UV-I 120 W/m 7,9 C 11,6 C 4,0 km/h (1 Bft) 0,00 %
26.09.2014 10:00 12,8 C 75 % 1022,6 hPa 0,0 l/m 2,4 km/h (1 Bft) W-SW 0,00 h 0,000 mm 1,0 UV-I 132 W/m 8,4 C 12,7 C 5,9 km/h (2 Bft) 0,00 %
26.09.2014 11:00 13,1 C 74 % 1022,8 hPa 0,0 l/m 4,0 km/h (1 Bft) W 0,00 h 0,000 mm 1,0 UV-I 109 W/m 8,5 C 12,3 C 5,9 km/h (2 Bft) 0,00 %
26.09.2014 12:00 12,4 C 78 % 1023,1 hPa 0,0 l/m 0,6 km/h (0 Bft) SW 0,00 h 0,000 mm 2,0 UV-I 57 W/m 8,7 C 12,4 C 4,0 km/h (1 Bft) 0,00 %
26.09.2014 13:00 13,0 C 78 % 1022,8 hPa 0,0 l/m 0,4 km/h (0 Bft) W-SW 0,00 h 0,000 mm 1,7 UV-I 158 W/m 9,2 C 13,0 C 2,0 km/h (1 Bft) 0,00 %
26.09.2014 14:00 13,8 C 73 % 1022,4 hPa 0,0 l/m 2,5 km/h (1 Bft) W-SW 0,00 h 0,000 mm 1,0 UV-I 118 W/m 9,0 C 13,7 C 4,0 km/h (1 Bft) 0,00 %
26.09.2014 15:00 13,1 C 75 % 1022,8 hPa 0,3 l/m 0,7 km/h (0 Bft) W-SW 0,00 h 0,000 mm 1,0 UV-I 61 W/m 8,8 C 13,1 C 3,0 km/h (1 Bft) 0,00 %
26.09.2014 16:00 12,0 C 83 % 1023,1 hPa 0,6 l/m 0,4 km/h (0 Bft) N 0,00 h 0,000 mm 0,0 UV-I 59 W/m 9,1 C 12,0 C 2,0 km/h (1 Bft) 0,00 %
26.09.2014 17:00 11,3 C 85 % 1023,2 hPa 1,2 l/m 0,3 km/h (0 Bft) N 0,00 h 0,000 mm 0,0 UV-I 24 W/m 8,8 C 11,3 C 3,0 km/h (1 Bft) 0,00 %
26.09.2014 18:00 10,8 C 85 % 1023,2 hPa 0,0 l/m 0,3 km/h (0 Bft) N 0,00 h 0,000 mm 0,0 UV-I 4 W/m 8,3 C 10,8 C 3,0 km/h (1 Bft) 0,00 %
26.09.2014 19:00 10,9 C 84 % 1023,2 hPa 0,3 l/m 0,1 km/h (0 Bft) N 0,00 h 0,000 mm 0,0 UV-I 0 W/m 8,2 C 10,9 C 1,0 km/h (0 Bft) 0,00 %
26.09.2014 20:00 10,9 C 84 % 1023,4 hPa 0,6 l/m 0,2 km/h (0 Bft) SW 0,00 h 0,000 mm 0,0 UV-I 0 W/m 8,4 C 10,9 C 1,0 km/h (0 Bft) 0,00 %
26.09.2014 21:00 11,4 C 83 % 1023,6 hPa 0,0 l/m 1,1 km/h (0 Bft) W-NW 0,00 h 0,000 mm 0,0 UV-I 0 W/m 8,6 C 11,4 C 3,0 km/h (1 Bft) 0,00 %
26.09.2014 22:00 11,4 C 83 % 1023,9 hPa 0,0 l/m 0,5 km/h (0 Bft) O-SO 0,00 h 0,000 mm 0,0 UV-I 0 W/m 8,7 C 11,4 C 4,0 km/h (1 Bft) 0,00 %
26.09.2014 23:00 11,6 C 82 % 1024,0 hPa 0,3 l/m 0,3 km/h (0 Bft) N 0,00 h 0,000 mm 0,0 UV-I 0 W/m 8,6 C 11,6 C 1,0 km/h (0 Bft) 0,00 %
27.09.2014 00:00 11,5 C 83 % 1024,2 hPa 0,0 l/m 0,1 km/h (0 Bft) N 0,00 h 0,000 mm 0,0 UV-I 0 W/m 8,7 C 11,5 C 1,0 km/h (0 Bft) 0,00 %
27.09.2014 01:00 11,7 C 82 % 1024,5 hPa 0,0 l/m 0,6 km/h (0 Bft) N 0,00 h 0,000 mm 0,0 UV-I 0 W/m 8,8 C 11,7 C 4,0 km/h (1 Bft) 0,00 %
27.09.2014 02:00 12,2 C 81 % 1024,7 hPa 0,0 l/m 0,6 km/h (0 Bft) NW 0,00 h 0,000 mm 0,0 UV-I 0 W/m 8,9 C 12,2 C 3,0 km/h (1 Bft) 0,00 %
27.09.2014 03:00 12,0 C 84 % 1025,1 hPa 0,3 l/m 0,5 km/h (0 Bft) N 0,00 h 0,000 mm 0,0 UV-I 0 W/m 9,2 C 12,0 C 3,0 km/h (1 Bft) 0,00 %
27.09.2014 04:00 11,6 C 87 % 1025,5 hPa 0,0 l/m 0,1 km/h (0 Bft) N-NW 0,00 h 0,000 mm 0,0 UV-I 0 W/m 9,5 C 11,6 C 1,0 km/h (0 Bft) 0,00 %
27.09.2014 05:00 11,8 C 87 % 1025,6 hPa 0,3 l/m 0,6 km/h (0 Bft) SW 0,00 h 0,000 mm 0,0 UV-I 0 W/m 9,7 C 11,8 C 2,0 km/h (1 Bft) 0,00 %
27.09.2014 06:00 11,8 C 87 % 1026,0 hPa 0,0 l/m 0,7 km/h (0 Bft) N 0,00 h 0,000 mm 0,0 UV-I 0 W/m 9,7 C 11,8 C 3,0 km/h (1 Bft) 0,00 %
27.09.2014 07:00 11,8 C 87 % 1026,4 hPa 0,3 l/m 0,9 km/h (0 Bft) S-SW 0,00 h 0,000 mm 0,0 UV-I 3 W/m 9,7 C 11,8 C 4,0 km/h (1 Bft) 0,00 %
27.09.2014 08:00 11,9 C 87 % 1026,9 hPa 0,0 l/m 0,4 km/h (0 Bft) W-NW 0,00 h 0,000 mm 1,0 UV-I 38 W/m 9,8 C 11,9 C 2,0 km/h (1 Bft) 0,00 %
27.09.2014 09:00 12,5 C 86 % 1027,3 hPa 0,0 l/m 0,3 km/h (0 Bft) N 0,00 h 0,000 mm 2,0 UV-I 85 W/m 10,1 C 12,5 C 2,0 km/h (1 Bft) 0,00 %
27.09.2014 10:00 14,4 C 81 % 1027,1 hPa 0,0 l/m 0,0 km/h (0 Bft) N 0,00 h 0,000 mm 2,3 UV-I 238 W/m 11,2 C 14,4 C 0,0 km/h (0 Bft) 0,00 %
27.09.2014 11:00 16,1 C 73 % 1027,1 hPa 0,0 l/m 0,1 km/h (0 Bft) N 0,00 h 0,000 mm 1,7 UV-I 263 W/m 11,3 C 16,1 C 1,0 km/h (0 Bft) 0,00 %
27.09.2014 12:00 16,0 C 73 % 1027,3 hPa 0,0 l/m 0,0 km/h (0 Bft) N 0,00 h 0,000 mm 3,0 UV-I 154 W/m 11,1 C 16,0 C 0,0 km/h (0 Bft) 0,00 %
27.09.2014 13:00 17,5 C 68 % 1026,4 hPa 0,0 l/m 0,2 km/h (0 Bft) N 0,50 h 0,000 mm 3,0 UV-I 320 W/m 11,6 C 17,5 C 1,0 km/h (0 Bft) 0,00 %
27.09.2014 14:00 18,0 C 67 % 1026,0 hPa 0,0 l/m 0,1 km/h (0 Bft) N 0,50 h 0,000 mm 2,0 UV-I 332 W/m 11,6 C 18,0 C 1,0 km/h (0 Bft) 0,00 %
27.09.2014 15:00 18,0 C 65 % 1025,8 hPa 0,0 l/m 0,1 km/h (0 Bft) N 0,50 h 0,000 mm 2,0 UV-I 285 W/m 11,3 C 18,0 C 1,0 km/h (0 Bft) 0,00 %
27.09.2014 16:00 18,1 C 64 % 1025,6 hPa 0,0 l/m 0,0 km/h (0 Bft) N 0,75 h 0,000 mm 1,0 UV-I 196 W/m 11,2 C 18,1 C 0,0 km/h (0 Bft) 0,00 %
27.09.2014 17:00 19,4 C 59 % 1024,8 hPa 0,0 l/m 0,2 km/h (0 Bft) N 1,00 h 0,000 mm 1,0 UV-I 448 W/m 11,0 C 19,4 C 1,0 km/h (0 Bft) 0,00 %
27.09.2014 18:00 17,3 C 68 % 1025,7 hPa 0,0 l/m 0,0 km/h (0 Bft) N 0,75 h 0,000 mm 0,0 UV-I 106 W/m 11,2 C 17,3 C 0,0 km/h (0 Bft) 0,00 %
27.09.2014 19:00 13,5 C 83 % 1026,7 hPa 0,0 l/m 0,0 km/h (0 Bft) N 0,00 h 0,000 mm 0,0 UV-I 0 W/m 10,6 C 13,5 C 0,0 km/h (0 Bft) 0,00 %
27.09.2014 20:00 12,1 C 87 % 1027,3 hPa 0,0 l/m 0,0 km/h (0 Bft) N 0,00 h 0,000 mm 0,0 UV-I 0 W/m 9,9 C 12,1 C 0,0 km/h (0 Bft) 0,00 %
27.09.2014 21:00 11,3 C 88 % 1027,7 hPa 0,0 l/m 0,0 km/h (0 Bft) N 0,00 h 0,000 mm 0,0 UV-I 0 W/m 9,3 C 11,3 C 0,0 km/h (0 Bft) 0,00 %
27.09.2014 22:00 10,4 C 89 % 1028,1 hPa 0,0 l/m 0,0 km/h (0 Bft) N 0,00 h 0,000 mm 0,0 UV-I 0 W/m 8,6 C 10,4 C 0,0 km/h (0 Bft) 0,00 %
27.09.2014 23:00 9,7 C 89 % 1028,3 hPa 0,0 l/m 0,0 km/h (0 Bft) N 0,00 h 0,000 mm 0,0 UV-I 0 W/m 7,9 C 9,7 C 0,0 km/h (0 Bft) 0,00 %
28.09.2014 00:00 9,5 C 90 % 1028,1 hPa 0,0 l/m 0,0 km/h (0 Bft) N 0,00 h 0,000 mm 0,0 UV-I 0 W/m 8,0 C 9,5 C 0,0 km/h (0 Bft) 0,00 %
28.09.2014 01:00 9,6 C 91 % 1028,2 hPa 0,0 l/m 0,0 km/h (0 Bft) N 0,00 h 0,000 mm 0,0 UV-I 0 W/m 8,2 C 9,6 C 0,0 km/h (0 Bft) 0,00 %
28.09.2014 02:00 9,4 C 91 % 1028,1 hPa 0,0 l/m 0,0 km/h (0 Bft) N 0,00 h 0,000 mm 0,0 UV-I 0 W/m 7,9 C 9,4 C 0,0 km/h (0 Bft) 0,00 %
28.09.2014 03:00 9,4 C 91 % 1027,9 hPa 0,0 l/m 0,0 km/h (0 Bft) N 0,00 h 0,000 mm 0,0 UV-I 0 W/m 7,9 C 9,4 C 0,0 km/h (0 Bft) 0,00 %
28.09.2014 04:00 9,7 C 90 % 1027,6 hPa 0,0 l/m 0,6 km/h (0 Bft) O 0,00 h 0,000 mm 0,0 UV-I 0 W/m 8,1 C 9,7 C 1,0 km/h (0 Bft) 0,00 %
28.09.2014 05:00 9,4 C 91 % 1027,4 hPa 0,0 l/m 1,0 km/h (0 Bft) O-SO 0,00 h 0,000 mm 0,0 UV-I 0 W/m 7,9 C 9,4 C 2,0 km/h (1 Bft) 0,00 %
28.09.2014 06:00 8,8 C 91 % 1027,3 hPa 0,0 l/m 0,3 km/h (0 Bft) N 0,00 h 0,000 mm 0,0 UV-I 0 W/m 7,4 C 8,8 C 3,0 km/h (1 Bft) 0,00 %
28.09.2014 07:00 8,4 C 92 % 1027,4 hPa 0,0 l/m 0,0 km/h (0 Bft) O-SO 0,00 h 0,000 mm 1,0 UV-I 22 W/m 7,1 C 8,4 C 0,0 km/h (0 Bft) 0,00 %
28.09.2014 08:00 8,6 C 91 % 1027,3 hPa 0,0 l/m 0,6 km/h (0 Bft) N 0,00 h 0,000 mm 2,0 UV-I 87 W/m 7,3 C 8,6 C 3,0 km/h (1 Bft) 0,00 %
28.09.2014 09:00 9,5 C 90 % 1027,1 hPa 0,0 l/m 1,2 km/h (1 Bft) O-SO 0,00 h 0,000 mm 2,7 UV-I 158 W/m 8,0 C 9,5 C 2,0 km/h (1 Bft) 0,00 %
28.09.2014 10:00 11,9 C 83 % 1026,3 hPa 0,0 l/m 2,3 km/h (1 Bft) O 0,25 h 0,000 mm 4,0 UV-I 230 W/m 9,0 C 11,9 C 5,0 km/h (1 Bft) 0,00 %
28.09.2014 11:00 14,2 C 73 % 1025,3 hPa 0,0 l/m 3,9 km/h (1 Bft) O 0,25 h 0,000 mm 4,0 UV-I 317 W/m 9,4 C 14,0 C 6,9 km/h (2 Bft) 0,00 %
28.09.2014 12:00 16,2 C 68 % 1024,4 hPa 0,0 l/m 3,5 km/h (1 Bft) O 0,75 h 0,000 mm 2,7 UV-I 371 W/m 10,2 C 16,2 C 5,9 km/h (2 Bft) 0,00 %
28.09.2014 13:00 17,4 C 62 % 1023,6 hPa 0,0 l/m 3,7 km/h (1 Bft) O-NO 1,00 h 0,000 mm 2,0 UV-I 543 W/m 10,1 C 17,4 C 5,9 km/h (2 Bft) 0,00 %
28.09.2014 14:00 18,2 C 61 % 1022,9 hPa 0,0 l/m 2,9 km/h (1 Bft) S 1,00 h 0,000 mm 2,0 UV-I 537 W/m 10,5 C 18,2 C 6,9 km/h (2 Bft) 0,00 %
28.09.2014 15:00 18,8 C 58 % 1022,5 hPa 0,0 l/m 2,9 km/h (1 Bft) O-SO 1,00 h 0,000 mm 1,7 UV-I 527 W/m 10,3 C 18,8 C 5,0 km/h (1 Bft) 0,00 %
28.09.2014 16:00 19,4 C 55 % 1021,8 hPa 0,0 l/m 2,7 km/h (1 Bft) O 1,00 h 0,000 mm 1,0 UV-I 512 W/m 10,1 C 19,3 C 5,0 km/h (1 Bft) 0,00 %
28.09.2014 17:00 19,1 C 60 % 1022,2 hPa 0,0 l/m 2,0 km/h (1 Bft) O-SO 1,00 h 0,000 mm 0,0 UV-I 309 W/m 11,2 C 19,1 C 5,0 km/h (1 Bft) 0,00 %
28.09.2014 18:00 16,9 C 69 % 1022,5 hPa 0,0 l/m 3,4 km/h (1 Bft) O 0,75 h 0,000 mm 0,0 UV-I 71 W/m 11,2 C 16,7 C 5,9 km/h (2 Bft) 0,00 %
28.09.2014 19:00 15,0 C 77 % 1022,9 hPa 0,0 l/m 0,7 km/h (0 Bft) O 0,00 h 0,000 mm 0,0 UV-I 0 W/m 11,1 C 15,0 C 3,0 km/h (1 Bft) 0,00 %
28.09.2014 20:00 14,8 C 76 % 1023,0 hPa 0,0 l/m 3,7 km/h (1 Bft) O-NO 0,00 h 0,000 mm 0,0 UV-I 0 W/m 10,6 C 14,6 C 5,9 km/h (2 Bft) 0,00 %
28.09.2014 21:00 14,3 C 79 % 1023,2 hPa 0,0 l/m 3,3 km/h (1 Bft) O-SO 0,00 h 0,000 mm 0,0 UV-I 0 W/m 10,7 C 14,3 C 5,9 km/h (2 Bft) 0,00 %
28.09.2014 22:00 13,4 C 82 % 1023,3 hPa 0,0 l/m 1,0 km/h (0 Bft) N 0,00 h 0,000 mm 0,0 UV-I 0 W/m 10,3 C 13,4 C 2,0 km/h (1 Bft) 0,00 %
28.09.2014 23:00 11,8 C 85 % 1024,1 hPa 0,0 l/m 0,0 km/h (0 Bft) N 0,00 h 0,000 mm 0,0 UV-I 0 W/m 9,3 C 11,8 C 0,0 km/h (0 Bft) 0,00 %
Min-Datum _ 24.09.14 23.09.14 24.09.14 - 22.09.14 - - - - - 24.09.14 23.09.14 22.09.14 22.09.14
_ Min-Zeit 07:00 17:15 16:45 - 02:15 - - - - - 07:00 01:30 02:15 00:00
Minimum _ 3,1 C 48 % 1008,0 hPa - 0,0 km/h (0 Bft) - - - - - 2,2 C 1,3 C 0,0 km/h (0 Bft) 0,00 %
Max-Datum _ 28.09.14 24.09.14 27.09.14 22.09.14 23.09.14 - 22.09.14 22.09.14 22.09.14 27.09.14 27.09.14 28.09.14 23.09.14 22.09.14
_ Max-Zeit 16:45 06:15 23:00 03:30 01:30 - 08:00 00:00 11:45 17:00 14:45 16:45 01:30 00:00
Maximum _ 19,9 C 94 % 1028,5 hPa 5,7 l/m 18,0 km/h
S (3 Bft)
- 0,25 h 0,000 mm 5,0 UV-I 595 W/m 12,2 C 19,9 C 24,1 km/h
S (4 Bft)
0,00 %
Durchschnitt _ 11,4 C 79 % 1019,2 hPa #20,4 l/m 1,2 km/h (1 Bft) W-SW #24:15 h #0,000 mm 1,9 UV-I 196 W/m 7,7 C 11,4 C 2,8 km/h (1 Bft) 0,00 %